createdAt,value
2024-01-04T00:00:11.792Z,4.97
2024-01-04T00:00:44.251Z,5.65
2024-01-04T00:01:16.835Z,4.75
2024-01-04T00:01:49.224Z,6.22
2024-01-04T00:02:21.723Z,5.30
2024-01-04T00:02:54.094Z,6.18
2024-01-04T00:03:27.858Z,5.72
2024-01-04T00:04:00.535Z,4.35
2024-01-04T00:04:32.981Z,5.57
2024-01-04T00:05:05.449Z,5.45
2024-01-04T00:05:37.872Z,4.90
2024-01-04T00:06:10.476Z,5.45
2024-01-04T00:06:45.488Z,5.15
2024-01-04T00:07:17.955Z,5.25
2024-01-04T00:07:50.257Z,6.43
2024-01-04T00:08:22.716Z,5.53
2024-01-04T00:08:55.171Z,4.95
2024-01-04T00:09:27.585Z,5.93
2024-01-04T00:10:02.270Z,5.38
2024-01-04T00:10:34.618Z,5.68
2024-01-04T00:11:07.885Z,6.18
2024-01-04T00:11:40.217Z,5.85
2024-01-04T00:12:12.709Z,5.20
2024-01-04T00:12:46.200Z,6.13
2024-01-04T00:13:18.693Z,5.97
2024-01-04T00:13:51.018Z,5.45
2024-01-04T00:14:23.458Z,5.70
2024-01-04T00:14:56.495Z,5.60
2024-01-04T00:15:29.032Z,6.40
2024-01-04T00:16:01.433Z,5.80
2024-01-04T00:16:34.215Z,5.80
2024-01-04T00:17:06.522Z,5.05
2024-01-04T00:17:38.965Z,5.95
2024-01-04T00:18:11.485Z,5.63
2024-01-04T00:18:44.029Z,5.80
2024-01-04T00:19:16.712Z,6.32
2024-01-04T00:19:49.513Z,5.18
2024-01-04T00:20:23.574Z,4.70
2024-01-04T00:20:55.927Z,4.95
2024-01-04T00:21:28.327Z,5.30
2024-01-04T00:22:00.661Z,4.88
2024-01-04T00:22:33.020Z,6.00
2024-01-04T00:23:05.693Z,4.80
2024-01-04T00:23:38.073Z,4.63
2024-01-04T00:24:10.496Z,5.50
2024-01-04T00:24:42.945Z,5.93
2024-01-04T00:25:15.248Z,5.82
2024-01-04T00:25:48.007Z,5.32
2024-01-04T00:26:20.398Z,6.00
2024-01-04T00:26:52.892Z,5.38
2024-01-04T00:27:26.063Z,5.55
2024-01-04T00:27:58.382Z,5.53
2024-01-04T00:28:30.731Z,5.22
2024-01-04T00:29:03.181Z,5.30
2024-01-04T00:29:35.591Z,7.07
2024-01-04T00:30:08.365Z,6.07
2024-01-04T00:30:40.843Z,7.80
2024-01-04T00:31:13.682Z,5.10
2024-01-04T00:31:46.076Z,5.65
2024-01-04T00:32:18.376Z,5.15
2024-01-04T00:32:50.923Z,5.07
2024-01-04T00:33:23.758Z,4.55
2024-01-04T00:33:56.235Z,4.82
2024-01-04T00:34:28.760Z,3.80
2024-01-04T00:35:01.246Z,5.05
2024-01-04T00:35:34.158Z,4.22
2024-01-04T00:36:07.662Z,4.78
2024-01-04T00:36:39.984Z,4.43
2024-01-04T00:37:12.343Z,4.10
2024-01-04T00:37:44.853Z,4.18
2024-01-04T00:38:17.789Z,4.47
2024-01-04T00:38:50.265Z,5.40
2024-01-04T00:39:25.517Z,4.22
2024-01-04T00:39:57.914Z,4.97
2024-01-04T00:40:30.137Z,5.75
2024-01-04T00:41:02.837Z,5.28
2024-01-04T00:41:35.408Z,4.40
2024-01-04T00:42:08.146Z,4.47
2024-01-04T00:42:40.492Z,4.13
2024-01-04T00:43:12.887Z,4.40
2024-01-04T00:43:45.341Z,3.38
2024-01-04T00:44:17.742Z,4.05
2024-01-04T00:44:51.823Z,4.10
2024-01-04T00:45:24.416Z,4.25
2024-01-04T00:45:56.709Z,5.20
2024-01-04T00:46:29.082Z,4.45
2024-01-04T00:47:01.432Z,3.90
2024-01-04T00:47:33.961Z,4.63
2024-01-04T00:48:06.812Z,4.00
2024-01-04T00:48:39.516Z,3.95
2024-01-04T00:49:12.130Z,4.20
2024-01-04T00:49:44.647Z,3.75
2024-01-04T00:50:16.983Z,4.40
2024-01-04T00:50:49.392Z,4.28
2024-01-04T00:51:21.760Z,4.20
2024-01-04T00:51:54.193Z,3.88
2024-01-04T00:52:26.490Z,4.43
2024-01-04T00:53:03.740Z,4.72
2024-01-04T00:53:43.181Z,3.47
2024-01-04T00:54:15.673Z,4.22
2024-01-04T00:54:48.180Z,4.32
2024-01-04T00:55:20.963Z,3.95
2024-01-04T00:55:53.439Z,3.88
2024-01-04T00:56:31.464Z,3.67
2024-01-04T00:57:03.899Z,4.35
2024-01-04T00:57:37.912Z,4.70
2024-01-04T00:58:10.245Z,3.30
2024-01-04T00:58:43.094Z,3.85
2024-01-04T00:59:15.386Z,3.92
2024-01-04T00:59:47.653Z,3.35
2024-01-04T01:00:20.536Z,3.63
2024-01-04T01:00:53.889Z,4.00
2024-01-04T01:01:26.495Z,3.15
2024-01-04T01:01:59.995Z,3.90
2024-01-04T01:02:32.388Z,4.07
2024-01-04T01:03:05.089Z,2.95
2024-01-04T01:03:37.559Z,2.88
2024-01-04T01:04:10.146Z,3.58
2024-01-04T01:04:42.869Z,3.22
2024-01-04T01:05:15.335Z,3.65
2024-01-04T01:05:47.765Z,3.05
2024-01-04T01:06:20.362Z,3.38
2024-01-04T01:06:52.723Z,3.10
2024-01-04T01:07:25.907Z,3.38
2024-01-04T01:07:58.528Z,3.88
2024-01-04T01:08:30.956Z,3.17
2024-01-04T01:09:03.331Z,3.60
2024-01-04T01:09:35.699Z,3.90
2024-01-04T01:10:08.284Z,3.60
2024-01-04T01:10:40.581Z,3.88
2024-01-04T01:11:13.765Z,3.13
2024-01-04T01:11:46.377Z,3.38
2024-01-04T01:12:18.745Z,2.60
2024-01-04T01:12:51.608Z,3.05
2024-01-04T01:13:24.095Z,3.33
2024-01-04T01:13:56.469Z,3.72
2024-01-04T01:14:28.875Z,3.00
2024-01-04T01:15:01.325Z,2.80
2024-01-04T01:15:33.874Z,3.13
2024-01-04T01:16:06.332Z,3.53
2024-01-04T01:16:39.098Z,3.05
2024-01-04T01:17:11.480Z,3.08
2024-01-04T01:17:44.334Z,3.20
2024-01-04T01:18:16.822Z,3.72
2024-01-04T01:18:49.409Z,3.88
2024-01-04T01:19:22.183Z,2.97
2024-01-04T01:19:54.682Z,3.10
2024-01-04T01:20:27.100Z,3.15
2024-01-04T01:20:59.637Z,2.83
2024-01-04T01:21:32.102Z,2.95
2024-01-04T01:22:04.506Z,2.80
2024-01-04T01:22:37.672Z,2.97
2024-01-04T01:23:10.010Z,2.70
2024-01-04T01:23:42.357Z,2.70
2024-01-04T01:24:14.775Z,3.83
2024-01-04T01:24:47.112Z,3.28
2024-01-04T01:25:19.451Z,2.75
2024-01-04T01:25:51.834Z,3.13
2024-01-04T01:26:24.071Z,2.92
2024-01-04T01:26:56.468Z,3.15
2024-01-04T01:27:28.911Z,3.00
2024-01-04T01:28:01.352Z,3.05
2024-01-04T01:28:33.741Z,2.63
2024-01-04T01:29:06.042Z,3.10
2024-01-04T01:29:38.465Z,3.22
2024-01-04T01:30:11.100Z,3.03
2024-01-04T01:30:43.694Z,2.88
2024-01-04T01:31:16.025Z,2.50
2024-01-04T01:31:48.345Z,2.88
2024-01-04T01:32:20.684Z,3.20
2024-01-04T01:32:53.247Z,2.70
2024-01-04T01:33:26.499Z,2.95
2024-01-04T01:33:59.030Z,2.55
2024-01-04T01:34:31.640Z,2.70
2024-01-04T01:35:04.104Z,2.67
2024-01-04T01:35:36.652Z,2.85
2024-01-04T01:36:09.773Z,2.20
2024-01-04T01:36:42.562Z,3.05
2024-01-04T01:37:16.116Z,2.70
2024-01-04T01:37:48.442Z,3.00
2024-01-04T01:38:20.892Z,2.90
2024-01-04T01:38:53.654Z,2.60
2024-01-04T01:39:26.541Z,2.83
2024-01-04T01:39:58.765Z,3.08
2024-01-04T01:40:31.131Z,2.75
2024-01-04T01:41:04.343Z,2.80
2024-01-04T01:41:37.131Z,2.20
2024-01-04T01:42:09.600Z,2.67
2024-01-04T01:42:46.602Z,2.67
2024-01-04T01:43:19.547Z,2.70
2024-01-04T01:43:51.850Z,2.17
2024-01-04T01:44:24.222Z,2.78
2024-01-04T01:44:56.709Z,2.17
2024-01-04T01:45:29.160Z,2.30
2024-01-04T01:46:01.783Z,2.88
2024-01-04T01:46:34.704Z,2.58
2024-01-04T01:47:07.232Z,2.15
2024-01-04T01:47:41.343Z,2.33
2024-01-04T01:48:16.058Z,2.53
2024-01-04T01:48:48.952Z,2.88
2024-01-04T01:49:21.689Z,2.15
2024-01-04T01:49:54.802Z,2.65
2024-01-04T01:50:27.941Z,2.30
2024-01-04T01:51:01.316Z,2.53
2024-01-04T01:51:33.723Z,3.13
2024-01-04T01:52:06.080Z,2.60
2024-01-04T01:52:38.718Z,2.58
2024-01-04T01:53:11.248Z,2.90
2024-01-04T01:53:43.741Z,2.45
2024-01-04T01:54:16.276Z,2.53
2024-01-04T01:54:49.154Z,2.25
2024-01-04T01:55:21.603Z,2.35
2024-01-04T01:55:54.955Z,2.22
2024-01-04T01:56:27.534Z,2.65
2024-01-04T01:56:59.907Z,3.03
2024-01-04T01:57:35.366Z,2.70
2024-01-04T01:58:07.869Z,2.15
2024-01-04T01:58:40.360Z,2.63
2024-01-04T01:59:21.176Z,2.50
2024-01-04T01:59:57.775Z,2.47
2024-01-04T02:00:30.227Z,2.47
2024-01-04T02:01:02.775Z,2.25
2024-01-04T02:01:35.152Z,2.30
2024-01-04T02:02:07.818Z,2.55
2024-01-04T02:02:40.209Z,2.90
2024-01-04T02:03:14.257Z,3.13
2024-01-04T02:03:47.832Z,2.35
2024-01-04T02:04:20.276Z,2.17
2024-01-04T02:04:52.705Z,2.50
2024-01-04T02:05:25.641Z,2.80
2024-01-04T02:05:58.929Z,2.22
2024-01-04T02:06:31.454Z,2.55
2024-01-04T02:07:04.790Z,2.08
2024-01-04T02:07:37.198Z,2.55
2024-01-04T02:08:09.525Z,2.90
2024-01-04T02:08:42.085Z,3.05
2024-01-04T02:09:14.631Z,2.60
2024-01-04T02:09:47.137Z,2.50
2024-01-04T02:10:19.432Z,2.60
2024-01-04T02:10:51.757Z,2.95
2024-01-04T02:11:24.435Z,2.60
2024-01-04T02:12:03.828Z,2.67
2024-01-04T02:12:36.377Z,2.22
2024-01-04T02:13:10.719Z,2.40
2024-01-04T02:13:43.213Z,2.72
2024-01-04T02:14:15.533Z,2.80
2024-01-04T02:14:49.628Z,2.08
2024-01-04T02:15:22.097Z,2.75
2024-01-04T02:15:54.504Z,2.35
2024-01-04T02:16:26.989Z,2.65
2024-01-04T02:16:59.343Z,2.28
2024-01-04T02:17:31.901Z,2.90
2024-01-04T02:18:04.753Z,2.95
2024-01-04T02:18:37.377Z,2.92
2024-01-04T02:19:12.823Z,2.72
2024-01-04T02:19:46.063Z,2.50
2024-01-04T02:20:18.406Z,2.33
2024-01-04T02:20:50.794Z,2.58
2024-01-04T02:21:23.124Z,2.45
2024-01-04T02:21:55.594Z,3.10
2024-01-04T02:22:27.903Z,2.65
2024-01-04T02:23:00.791Z,2.22
2024-01-04T02:23:34.472Z,2.60
2024-01-04T02:24:07.071Z,2.67
2024-01-04T02:24:39.481Z,2.80
2024-01-04T02:25:11.962Z,2.53
2024-01-04T02:25:44.376Z,2.40
2024-01-04T02:26:17.139Z,2.90
2024-01-04T02:26:50.046Z,2.90
2024-01-04T02:27:22.474Z,2.78
2024-01-04T02:27:54.822Z,3.38
2024-01-04T02:28:27.164Z,3.08
2024-01-04T02:28:59.891Z,2.65
2024-01-04T02:29:32.196Z,3.35
2024-01-04T02:30:04.984Z,3.00
2024-01-04T02:30:37.368Z,3.13
2024-01-04T02:31:09.849Z,3.05
2024-01-04T02:31:43.378Z,2.95
2024-01-04T02:32:15.747Z,2.08
2024-01-04T02:32:48.819Z,2.92
2024-01-04T02:33:21.521Z,2.72
2024-01-04T02:33:54.140Z,2.40
2024-01-04T02:34:26.842Z,2.60
2024-01-04T02:34:59.275Z,2.63
2024-01-04T02:35:31.753Z,3.63
2024-01-04T02:36:04.280Z,3.30
2024-01-04T02:36:36.709Z,2.65
2024-01-04T02:37:09.216Z,2.70
2024-01-04T02:37:41.536Z,2.50
2024-01-04T02:38:14.270Z,3.08
2024-01-04T02:38:46.615Z,2.25
2024-01-04T02:39:19.021Z,2.63
2024-01-04T02:39:51.326Z,2.20
2024-01-04T02:40:23.803Z,2.53
2024-01-04T02:40:56.279Z,2.97
2024-01-04T02:41:29.677Z,2.42
2024-01-04T02:42:02.118Z,2.40
2024-01-04T02:42:34.640Z,2.45
2024-01-04T02:43:10.974Z,2.60
2024-01-04T02:43:43.504Z,2.45
2024-01-04T02:44:15.825Z,2.65
2024-01-04T02:44:49.330Z,2.70
2024-01-04T02:45:21.687Z,2.08
2024-01-04T02:45:54.008Z,2.65
2024-01-04T02:46:26.360Z,2.72
2024-01-04T02:46:58.774Z,2.40
2024-01-04T02:47:31.246Z,1.85
2024-01-04T02:48:04.155Z,2.58
2024-01-04T02:48:37.188Z,2.38
2024-01-04T02:49:09.870Z,2.83
2024-01-04T02:49:42.787Z,2.08
2024-01-04T02:50:15.512Z,2.90
2024-01-04T02:50:48.610Z,2.22
2024-01-04T02:51:20.981Z,2.55
2024-01-04T02:51:53.308Z,2.92
2024-01-04T02:52:25.664Z,2.70
2024-01-04T02:52:58.072Z,2.67
2024-01-04T02:53:30.376Z,2.55
2024-01-04T02:54:02.743Z,2.60
2024-01-04T02:54:35.192Z,2.30
2024-01-04T02:55:07.620Z,2.22
2024-01-04T02:55:41.929Z,2.25
2024-01-04T02:56:14.265Z,2.17
2024-01-04T02:56:46.629Z,2.53
2024-01-04T02:57:18.958Z,3.13
2024-01-04T02:57:51.497Z,2.67
2024-01-04T02:58:23.832Z,2.47
2024-01-04T02:58:56.184Z,2.50
2024-01-04T02:59:28.519Z,2.30
2024-01-04T03:00:00.992Z,2.45
2024-01-04T03:00:33.388Z,2.58
2024-01-04T03:01:06.241Z,2.50
2024-01-04T03:01:38.807Z,2.60
2024-01-04T03:02:11.122Z,2.40
2024-01-04T03:02:43.528Z,2.53
2024-01-04T03:03:16.008Z,2.72
2024-01-04T03:03:49.966Z,2.40
2024-01-04T03:04:22.321Z,2.47
2024-01-04T03:04:54.713Z,2.65
2024-01-04T03:05:27.423Z,2.55
2024-01-04T03:05:59.799Z,2.47
2024-01-04T03:06:32.530Z,2.25
2024-01-04T03:07:04.922Z,2.35
2024-01-04T03:07:37.739Z,2.63
2024-01-04T03:08:10.068Z,2.83
2024-01-04T03:08:42.446Z,2.70
2024-01-04T03:09:14.863Z,2.45
2024-01-04T03:09:50.048Z,3.08
2024-01-04T03:10:22.418Z,2.63
2024-01-04T03:10:55.092Z,2.92
2024-01-04T03:11:27.408Z,2.50
2024-01-04T03:12:00.125Z,2.88
2024-01-04T03:12:32.565Z,2.75
2024-01-04T03:13:05.106Z,2.53
2024-01-04T03:13:37.489Z,3.00
2024-01-04T03:14:09.824Z,2.78
2024-01-04T03:14:43.084Z,2.58
2024-01-04T03:15:15.664Z,3.22
2024-01-04T03:15:48.080Z,2.40
2024-01-04T03:16:21.020Z,2.63
2024-01-04T03:16:53.310Z,2.88
2024-01-04T03:17:27.007Z,2.40
2024-01-04T03:17:59.337Z,2.83
2024-01-04T03:18:31.996Z,2.92
2024-01-04T03:19:04.882Z,3.00
2024-01-04T03:19:37.383Z,2.85
2024-01-04T03:20:10.027Z,2.38
2024-01-04T03:20:42.448Z,2.83
2024-01-04T03:21:15.996Z,2.15
2024-01-04T03:21:48.280Z,2.80
2024-01-04T03:22:26.159Z,2.25
2024-01-04T03:22:58.543Z,2.90
2024-01-04T03:23:30.822Z,2.22
2024-01-04T03:24:03.269Z,2.55
2024-01-04T03:24:35.804Z,3.25
2024-01-04T03:25:10.916Z,2.85
2024-01-04T03:25:43.261Z,2.72
2024-01-04T03:26:15.784Z,2.42
2024-01-04T03:26:48.138Z,3.20
2024-01-04T03:27:20.449Z,2.45
2024-01-04T03:27:52.964Z,2.53
2024-01-04T03:28:25.269Z,2.42
2024-01-04T03:28:57.980Z,2.28
2024-01-04T03:29:30.297Z,2.85
2024-01-04T03:30:02.597Z,3.53
2024-01-04T03:30:36.479Z,2.45
2024-01-04T03:31:09.052Z,2.50
2024-01-04T03:31:41.746Z,2.58
2024-01-04T03:32:14.045Z,2.75
2024-01-04T03:32:46.432Z,2.95
2024-01-04T03:33:18.989Z,2.58
2024-01-04T03:33:51.602Z,2.67
2024-01-04T03:34:24.230Z,2.60
2024-01-04T03:34:56.655Z,2.80
2024-01-04T03:35:28.978Z,3.10
2024-01-04T03:36:01.391Z,2.80
2024-01-04T03:36:33.893Z,2.80
2024-01-04T03:37:06.480Z,3.10
2024-01-04T03:37:38.863Z,3.55
2024-01-04T03:38:11.604Z,3.38
2024-01-04T03:38:44.621Z,3.00
2024-01-04T03:39:17.999Z,2.95
2024-01-04T03:39:51.177Z,3.00
2024-01-04T03:40:23.976Z,3.22
2024-01-04T03:40:56.185Z,3.45
2024-01-04T03:41:28.649Z,3.40
2024-01-04T03:42:01.168Z,3.00
2024-01-04T03:42:33.980Z,3.08
2024-01-04T03:43:06.336Z,3.10
2024-01-04T03:43:38.782Z,2.67
2024-01-04T03:44:11.265Z,3.00
2024-01-04T03:44:46.461Z,3.60
2024-01-04T03:45:18.968Z,2.95
2024-01-04T03:45:51.367Z,2.90
2024-01-04T03:46:23.705Z,3.60
2024-01-04T03:46:56.085Z,2.97
2024-01-04T03:47:28.763Z,3.08
2024-01-04T03:48:04.138Z,2.97
2024-01-04T03:48:36.716Z,2.70
2024-01-04T03:49:09.237Z,2.83
2024-01-04T03:49:41.668Z,2.78
2024-01-04T03:50:15.508Z,3.13
2024-01-04T03:50:47.857Z,3.00
2024-01-04T03:51:20.348Z,3.35
2024-01-04T03:51:52.676Z,3.35
2024-01-04T03:52:26.324Z,3.28
2024-01-04T03:52:58.689Z,3.00
2024-01-04T03:53:31.022Z,3.03
2024-01-04T03:54:03.445Z,3.28
2024-01-04T03:54:35.846Z,3.47
2024-01-04T03:55:08.691Z,3.03
2024-01-04T03:55:41.153Z,3.03
2024-01-04T03:56:13.524Z,2.90
2024-01-04T03:56:45.915Z,3.00
2024-01-04T03:57:18.625Z,3.05
2024-01-04T03:57:51.642Z,3.13
2024-01-04T03:58:26.911Z,2.72
2024-01-04T03:58:59.960Z,2.55
2024-01-04T03:59:32.259Z,3.53
2024-01-04T04:00:05.062Z,2.80
2024-01-04T04:00:43.752Z,2.53
2024-01-04T04:01:16.296Z,2.70
2024-01-04T04:01:48.852Z,2.97
2024-01-04T04:02:21.334Z,3.00
2024-01-04T04:02:53.823Z,3.60
2024-01-04T04:03:26.255Z,2.53
2024-01-04T04:03:59.100Z,2.63
2024-01-04T04:04:31.465Z,2.83
2024-01-04T04:05:03.888Z,2.88
2024-01-04T04:05:36.774Z,2.97
2024-01-04T04:06:09.670Z,2.53
2024-01-04T04:06:42.185Z,2.72
2024-01-04T04:07:14.613Z,2.67
2024-01-04T04:07:46.996Z,2.85
2024-01-04T04:08:19.282Z,3.28
2024-01-04T04:08:51.952Z,2.63
2024-01-04T04:09:24.719Z,2.55
2024-01-04T04:09:58.357Z,2.58
2024-01-04T04:10:30.720Z,2.90
2024-01-04T04:11:03.457Z,2.50
2024-01-04T04:11:36.933Z,2.92
2024-01-04T04:12:09.371Z,2.97
2024-01-04T04:12:41.875Z,2.72
2024-01-04T04:13:14.236Z,2.85
2024-01-04T04:13:46.730Z,3.20
2024-01-04T04:14:19.484Z,3.25
2024-01-04T04:14:52.566Z,2.80
2024-01-04T04:15:25.046Z,3.33
2024-01-04T04:15:57.505Z,3.22
2024-01-04T04:16:30.710Z,2.90
2024-01-04T04:17:03.123Z,3.08
2024-01-04T04:17:35.630Z,2.88
2024-01-04T04:18:08.647Z,3.05
2024-01-04T04:18:41.438Z,2.92
2024-01-04T04:19:14.079Z,3.40
2024-01-04T04:19:46.670Z,3.15
2024-01-04T04:20:19.050Z,3.00
2024-01-04T04:20:51.452Z,3.00
2024-01-04T04:21:24.591Z,2.90
2024-01-04T04:21:56.988Z,4.15
2024-01-04T04:22:29.417Z,3.17
2024-01-04T04:23:01.987Z,3.38
2024-01-04T04:23:34.443Z,3.15
2024-01-04T04:24:07.508Z,3.85
2024-01-04T04:24:41.478Z,3.65
2024-01-04T04:25:13.826Z,3.60
2024-01-04T04:25:46.156Z,2.90
2024-01-04T04:26:22.420Z,2.85
2024-01-04T04:26:54.881Z,2.80
2024-01-04T04:27:27.259Z,3.30
2024-01-04T04:27:59.623Z,3.22
2024-01-04T04:28:31.973Z,3.42
2024-01-04T04:29:04.527Z,3.40
2024-01-04T04:29:40.049Z,3.40
2024-01-04T04:30:12.641Z,3.38
2024-01-04T04:30:45.320Z,3.33
2024-01-04T04:31:18.524Z,2.90
2024-01-04T04:31:51.082Z,3.20
2024-01-04T04:32:23.475Z,3.25
2024-01-04T04:32:55.983Z,3.25
2024-01-04T04:33:28.624Z,3.88
2024-01-04T04:34:01.120Z,3.50
2024-01-04T04:34:34.534Z,3.30
2024-01-04T04:35:06.974Z,3.47
2024-01-04T04:35:47.387Z,4.20
2024-01-04T04:36:24.019Z,3.40
2024-01-04T04:36:56.390Z,3.55
2024-01-04T04:37:28.686Z,3.53
2024-01-04T04:38:01.509Z,3.60
2024-01-04T04:38:35.241Z,2.85
2024-01-04T04:39:10.453Z,2.92
2024-01-04T04:39:42.921Z,3.45
2024-01-04T04:40:16.211Z,2.92
2024-01-04T04:40:48.634Z,2.95
2024-01-04T04:41:20.925Z,3.60
2024-01-04T04:41:53.486Z,3.30
2024-01-04T04:42:25.822Z,3.38
2024-01-04T04:42:58.110Z,2.83
2024-01-04T04:43:30.499Z,2.88
2024-01-04T04:44:02.888Z,3.42
2024-01-04T04:44:35.387Z,3.38
2024-01-04T04:45:07.938Z,2.85
2024-01-04T04:45:40.341Z,3.05
2024-01-04T04:46:13.239Z,2.60
2024-01-04T04:46:45.557Z,3.08
2024-01-04T04:47:17.920Z,3.13
2024-01-04T04:47:50.366Z,2.53
2024-01-04T04:48:23.091Z,2.63
2024-01-04T04:48:57.057Z,3.13
2024-01-04T04:49:30.258Z,3.10
2024-01-04T04:50:02.904Z,3.00
2024-01-04T04:50:35.388Z,2.88
2024-01-04T04:51:07.781Z,2.38
2024-01-04T04:51:40.128Z,2.70
2024-01-04T04:52:12.459Z,3.22
2024-01-04T04:52:44.822Z,3.38
2024-01-04T04:53:17.623Z,2.63
2024-01-04T04:53:49.982Z,3.75
2024-01-04T04:54:22.395Z,3.65
2024-01-04T04:54:54.743Z,3.28
2024-01-04T04:55:27.981Z,3.47
2024-01-04T04:56:00.529Z,3.08
2024-01-04T04:56:32.879Z,2.67
2024-01-04T04:57:05.999Z,3.13
2024-01-04T04:57:38.394Z,3.10
2024-01-04T04:58:10.737Z,3.05
2024-01-04T04:58:43.289Z,3.55
2024-01-04T04:59:15.605Z,2.88
2024-01-04T04:59:48.704Z,2.70
2024-01-04T05:00:21.271Z,2.92
2024-01-04T05:00:55.317Z,2.70
2024-01-04T05:01:27.844Z,3.28
2024-01-04T05:02:00.154Z,2.63
2024-01-04T05:02:32.454Z,3.22
2024-01-04T05:03:04.945Z,3.60
2024-01-04T05:03:38.187Z,2.90
2024-01-04T05:04:10.738Z,2.42
2024-01-04T05:04:44.765Z,2.92
2024-01-04T05:05:17.092Z,3.17
2024-01-04T05:05:49.648Z,3.15
2024-01-04T05:06:22.628Z,3.08
2024-01-04T05:06:55.102Z,2.55
2024-01-04T05:07:27.580Z,2.45
2024-01-04T05:08:00.345Z,2.70
2024-01-04T05:08:32.720Z,3.15
2024-01-04T05:09:05.147Z,2.88
2024-01-04T05:09:37.881Z,2.88
2024-01-04T05:10:10.235Z,2.83
2024-01-04T05:10:42.902Z,3.38
2024-01-04T05:11:15.406Z,3.40
2024-01-04T05:11:48.246Z,2.88
2024-01-04T05:12:20.623Z,2.95
2024-01-04T05:12:53.353Z,2.72
2024-01-04T05:13:25.813Z,3.13
2024-01-04T05:13:58.313Z,4.55
2024-01-04T05:14:31.211Z,3.00
2024-01-04T05:15:04.056Z,2.55
2024-01-04T05:15:36.514Z,3.25
2024-01-04T05:16:08.874Z,2.50
2024-01-04T05:16:42.347Z,2.83
2024-01-04T05:17:14.787Z,2.75
2024-01-04T05:17:47.168Z,2.78
2024-01-04T05:18:19.673Z,2.70
2024-01-04T05:18:52.376Z,3.08
2024-01-04T05:19:24.932Z,2.90
2024-01-04T05:19:58.168Z,3.03
2024-01-04T05:20:30.941Z,2.70
2024-01-04T05:21:04.229Z,3.72
2024-01-04T05:21:36.620Z,2.50
2024-01-04T05:22:08.988Z,2.38
2024-01-04T05:22:41.333Z,3.15
2024-01-04T05:23:13.641Z,2.88
2024-01-04T05:23:46.172Z,2.90
2024-01-04T05:24:18.520Z,2.85
2024-01-04T05:24:50.956Z,3.20
2024-01-04T05:25:23.475Z,3.35
2024-01-04T05:25:55.839Z,2.40
2024-01-04T05:26:28.237Z,2.55
2024-01-04T05:27:00.866Z,2.70
2024-01-04T05:27:33.266Z,2.80
2024-01-04T05:28:05.667Z,2.83
2024-01-04T05:28:38.048Z,2.97
2024-01-04T05:29:10.791Z,2.40
2024-01-04T05:29:43.146Z,2.63
2024-01-04T05:30:15.952Z,2.97
2024-01-04T05:30:48.326Z,3.28
2024-01-04T05:31:21.228Z,2.75
2024-01-04T05:31:53.581Z,2.70
2024-01-04T05:32:25.955Z,2.95
2024-01-04T05:32:58.550Z,3.08
2024-01-04T05:33:31.303Z,2.58
2024-01-04T05:34:03.880Z,3.05
2024-01-04T05:34:37.964Z,3.28
2024-01-04T05:35:10.984Z,3.35
2024-01-04T05:35:43.423Z,4.50
2024-01-04T05:36:15.914Z,3.78
2024-01-04T05:36:48.277Z,3.22
2024-01-04T05:37:20.613Z,3.53
2024-01-04T05:37:52.958Z,3.13
2024-01-04T05:38:25.359Z,2.83
2024-01-04T05:38:57.693Z,3.50
2024-01-04T05:39:30.014Z,2.83
2024-01-04T05:40:03.345Z,2.88
2024-01-04T05:40:35.621Z,3.03
2024-01-04T05:41:09.125Z,2.83
2024-01-04T05:41:41.464Z,2.28
2024-01-04T05:42:14.440Z,2.35
2024-01-04T05:42:46.863Z,2.58
2024-01-04T05:43:19.270Z,2.83
2024-01-04T05:43:51.706Z,2.72
2024-01-04T05:44:24.679Z,2.63
2024-01-04T05:44:57.022Z,2.85
2024-01-04T05:45:29.381Z,2.67
2024-01-04T05:46:07.655Z,3.33
2024-01-04T05:46:40.051Z,3.30
2024-01-04T05:47:12.506Z,2.95
2024-01-04T05:47:44.926Z,2.58
2024-01-04T05:48:17.645Z,4.18
2024-01-04T05:48:50.586Z,3.03
2024-01-04T05:49:23.130Z,4.25
2024-01-04T05:49:57.285Z,3.78
2024-01-04T05:50:30.114Z,3.95
2024-01-04T05:51:02.603Z,3.08
2024-01-04T05:51:42.285Z,3.03
2024-01-04T05:52:17.320Z,3.63
2024-01-04T05:52:49.651Z,3.08
2024-01-04T05:53:22.032Z,3.30
2024-01-04T05:53:54.544Z,3.72
2024-01-04T05:54:27.106Z,3.25
2024-01-04T05:54:59.491Z,2.72
2024-01-04T05:55:31.970Z,2.88
2024-01-04T05:56:04.991Z,3.45
2024-01-04T05:56:37.472Z,3.20
2024-01-04T05:57:10.259Z,2.83
2024-01-04T05:57:43.236Z,3.15
2024-01-04T05:58:15.661Z,4.32
2024-01-04T05:58:47.975Z,3.67
2024-01-04T05:59:20.385Z,3.83
2024-01-04T05:59:52.771Z,2.67
2024-01-04T06:00:25.174Z,2.60
2024-01-04T06:00:57.834Z,2.75
2024-01-04T06:01:30.239Z,3.00
2024-01-04T06:02:02.619Z,2.80
2024-01-04T06:02:35.398Z,2.95
2024-01-04T06:03:08.139Z,3.50
2024-01-04T06:03:40.576Z,2.78
2024-01-04T06:04:13.030Z,2.67
2024-01-04T06:04:45.380Z,2.83
2024-01-04T06:05:19.935Z,2.60
2024-01-04T06:05:52.575Z,2.70
2024-01-04T06:06:25.008Z,3.05
2024-01-04T06:06:57.721Z,3.25
2024-01-04T06:07:30.095Z,2.65
2024-01-04T06:08:02.848Z,2.80
2024-01-04T06:08:35.199Z,3.50
2024-01-04T06:09:07.814Z,2.35
2024-01-04T06:09:40.328Z,2.80
2024-01-04T06:10:12.707Z,2.92
2024-01-04T06:10:45.088Z,2.70
2024-01-04T06:11:19.548Z,2.70
2024-01-04T06:11:54.520Z,2.80
2024-01-04T06:12:27.083Z,2.63
2024-01-04T06:12:59.481Z,2.78
2024-01-04T06:13:32.338Z,2.72
2024-01-04T06:14:05.869Z,3.17
2024-01-04T06:14:38.242Z,3.33
2024-01-04T06:15:11.283Z,3.13
2024-01-04T06:15:43.599Z,2.40
2024-01-04T06:16:15.927Z,2.40
2024-01-04T06:16:49.266Z,2.85
2024-01-04T06:17:21.624Z,2.63
2024-01-04T06:17:54.143Z,3.35
2024-01-04T06:18:26.603Z,2.97
2024-01-04T06:18:59.523Z,3.08
2024-01-04T06:19:32.281Z,2.75
2024-01-04T06:20:05.358Z,2.47
2024-01-04T06:20:39.611Z,2.25
2024-01-04T06:21:12.104Z,2.38
2024-01-04T06:21:44.493Z,2.38
2024-01-04T06:22:16.784Z,2.80
2024-01-04T06:22:49.104Z,2.70
2024-01-04T06:23:21.441Z,2.92
2024-01-04T06:23:56.043Z,3.15
2024-01-04T06:24:28.764Z,2.67
2024-01-04T06:25:01.351Z,3.22
2024-01-04T06:25:33.825Z,2.70
2024-01-04T06:26:06.312Z,2.70
2024-01-04T06:26:38.880Z,2.63
2024-01-04T06:27:11.405Z,2.97
2024-01-04T06:27:43.845Z,4.03
2024-01-04T06:28:16.450Z,2.70
2024-01-04T06:28:48.821Z,3.08
2024-01-04T06:29:21.495Z,2.58
2024-01-04T06:29:53.823Z,2.53
2024-01-04T06:30:28.289Z,3.30
2024-01-04T06:31:01.093Z,3.33
2024-01-04T06:31:33.375Z,2.80
2024-01-04T06:32:05.918Z,3.38
2024-01-04T06:32:38.332Z,3.50
2024-01-04T06:33:11.683Z,3.28
2024-01-04T06:33:44.185Z,2.42
2024-01-04T06:34:17.973Z,2.72
2024-01-04T06:34:50.469Z,2.55
2024-01-04T06:35:22.841Z,2.38
2024-01-04T06:35:58.547Z,3.20
2024-01-04T06:36:31.372Z,3.13
2024-01-04T06:37:04.399Z,2.17
2024-01-04T06:37:37.089Z,2.83
2024-01-04T06:38:09.818Z,2.53
2024-01-04T06:38:42.269Z,2.85
2024-01-04T06:39:15.113Z,2.70
2024-01-04T06:39:51.077Z,2.92
2024-01-04T06:40:23.464Z,2.97
2024-01-04T06:40:59.884Z,3.00
2024-01-04T06:41:32.229Z,3.08
2024-01-04T06:42:06.468Z,2.78
2024-01-04T06:42:39.039Z,3.35
2024-01-04T06:43:11.440Z,2.97
2024-01-04T06:43:43.803Z,2.88
2024-01-04T06:44:16.221Z,2.70
2024-01-04T06:44:48.794Z,2.60
2024-01-04T06:45:21.593Z,2.88
2024-01-04T06:45:56.411Z,2.28
2024-01-04T06:46:31.158Z,2.67
2024-01-04T06:47:03.656Z,2.95
2024-01-04T06:47:36.272Z,6.13
2024-01-04T06:48:10.054Z,7.32
2024-01-04T06:48:42.904Z,5.68
2024-01-04T06:49:17.207Z,3.38
2024-01-04T06:49:51.289Z,5.28
2024-01-04T06:50:24.064Z,4.30
2024-01-04T06:50:59.555Z,4.90
2024-01-04T06:51:33.288Z,4.28
2024-01-04T06:52:05.653Z,3.83
2024-01-04T06:52:37.936Z,3.97
2024-01-04T06:53:11.809Z,3.88
2024-01-04T06:53:44.196Z,3.65
2024-01-04T06:54:16.541Z,4.82
2024-01-04T06:54:49.067Z,4.63
2024-01-04T06:55:21.427Z,3.83
2024-01-04T06:55:53.794Z,3.60
2024-01-04T06:56:26.845Z,9.38
2024-01-04T06:56:59.855Z,9.40
2024-01-04T06:57:32.604Z,6.38
2024-01-04T06:58:06.192Z,4.82
2024-01-04T06:58:38.445Z,4.32
2024-01-04T06:59:10.796Z,4.00
2024-01-04T06:59:43.398Z,4.63
2024-01-04T07:00:16.733Z,5.15
2024-01-04T07:00:49.148Z,5.20
2024-01-04T07:01:21.569Z,5.45
2024-01-04T07:01:53.980Z,8.45
2024-01-04T07:02:26.583Z,6.00
2024-01-04T07:03:00.215Z,6.55
2024-01-04T07:03:32.751Z,5.88
2024-01-04T07:04:05.399Z,4.95
2024-01-04T07:04:38.096Z,4.15
2024-01-04T07:05:12.632Z,3.13
2024-01-04T07:05:45.289Z,3.70
2024-01-04T07:06:17.751Z,3.88
2024-01-04T07:06:50.112Z,3.28
2024-01-04T07:07:23.298Z,4.20
2024-01-04T07:07:56.758Z,3.35
2024-01-04T07:08:29.374Z,3.85
2024-01-04T07:09:03.366Z,5.43
2024-01-04T07:09:38.468Z,5.47
2024-01-04T07:10:11.303Z,4.57
2024-01-04T07:10:44.057Z,4.32
2024-01-04T07:11:16.398Z,4.80
2024-01-04T07:11:48.826Z,4.18
2024-01-04T07:12:21.229Z,4.30
2024-01-04T07:12:53.721Z,4.47
2024-01-04T07:13:27.087Z,3.72
2024-01-04T07:13:59.377Z,3.90
2024-01-04T07:14:31.760Z,4.60
2024-01-04T07:15:04.486Z,4.00
2024-01-04T07:15:39.833Z,3.28
2024-01-04T07:16:12.632Z,3.75
2024-01-04T07:16:45.660Z,4.43